sensor_id;sensor_type;location;lat;lon;timestamp;P1;durP1;ratioP1;P2;durP2;ratioP2
79712;SDS011;69206;51.420;5.400;2023-06-14T00:00:10;9.02;;;6.82;;
79712;SDS011;69206;51.420;5.400;2023-06-14T00:02:38;12.57;;;7.07;;
79712;SDS011;69206;51.420;5.400;2023-06-14T00:05:05;11.02;;;7.40;;
79712;SDS011;69206;51.420;5.400;2023-06-14T00:07:35;11.05;;;6.85;;
79712;SDS011;69206;51.420;5.400;2023-06-14T00:10:03;11.45;;;6.95;;
79712;SDS011;69206;51.420;5.400;2023-06-14T00:12:30;11.52;;;7.07;;
79712;SDS011;69206;51.420;5.400;2023-06-14T00:14:56;13.27;;;6.97;;
79712;SDS011;69206;51.420;5.400;2023-06-14T00:17:22;14.10;;;6.68;;
79712;SDS011;69206;51.420;5.400;2023-06-14T00:19:47;15.27;;;6.90;;
79712;SDS011;69206;51.420;5.400;2023-06-14T00:22:13;14.65;;;6.93;;
79712;SDS011;69206;51.420;5.400;2023-06-14T00:24:38;10.63;;;6.60;;
79712;SDS011;69206;51.420;5.400;2023-06-14T00:27:04;13.05;;;7.07;;
79712;SDS011;69206;51.420;5.400;2023-06-14T00:29:30;15.68;;;6.90;;
79712;SDS011;69206;51.420;5.400;2023-06-14T00:31:55;15.30;;;6.50;;
79712;SDS011;69206;51.420;5.400;2023-06-14T00:34:21;14.35;;;6.90;;
79712;SDS011;69206;51.420;5.400;2023-06-14T00:36:46;15.90;;;7.13;;
79712;SDS011;69206;51.420;5.400;2023-06-14T00:39:11;9.15;;;7.07;;
79712;SDS011;69206;51.420;5.400;2023-06-14T00:41:37;16.00;;;7.05;;
79712;SDS011;69206;51.420;5.400;2023-06-14T00:44:03;13.00;;;7.05;;
79712;SDS011;69206;51.420;5.400;2023-06-14T00:46:29;12.23;;;6.70;;
79712;SDS011;69206;51.420;5.400;2023-06-14T00:48:54;15.07;;;6.88;;
79712;SDS011;69206;51.420;5.400;2023-06-14T00:51:21;12.95;;;6.40;;
79712;SDS011;69206;51.420;5.400;2023-06-14T00:53:47;10.93;;;6.53;;
79712;SDS011;69206;51.420;5.400;2023-06-14T00:56:13;9.65;;;6.15;;
79712;SDS011;69206;51.420;5.400;2023-06-14T00:58:39;9.85;;;6.50;;
79712;SDS011;69206;51.420;5.400;2023-06-14T01:01:05;13.93;;;6.50;;
79712;SDS011;69206;51.420;5.400;2023-06-14T01:03:31;10.05;;;6.75;;
79712;SDS011;69206;51.420;5.400;2023-06-14T01:06:10;14.10;;;7.07;;
79712;SDS011;69206;51.420;5.400;2023-06-14T01:08:57;10.43;;;6.40;;
79712;SDS011;69206;51.420;5.400;2023-06-14T01:11:38;15.25;;;6.30;;
79712;SDS011;69206;51.420;5.400;2023-06-14T01:14:14;10.75;;;6.80;;
79712;SDS011;69206;51.420;5.400;2023-06-14T01:16:41;13.85;;;6.82;;
79712;SDS011;69206;51.420;5.400;2023-06-14T01:19:07;12.40;;;5.95;;
79712;SDS011;69206;51.420;5.400;2023-06-14T01:21:38;14.23;;;6.25;;
79712;SDS011;69206;51.420;5.400;2023-06-14T01:24:07;16.50;;;7.07;;
79712;SDS011;69206;51.420;5.400;2023-06-14T01:26:33;16.10;;;6.30;;
79712;SDS011;69206;51.420;5.400;2023-06-14T01:29:00;13.13;;;6.80;;
79712;SDS011;69206;51.420;5.400;2023-06-14T01:31:26;12.23;;;6.20;;
79712;SDS011;69206;51.420;5.400;2023-06-14T01:33:52;10.30;;;6.10;;
79712;SDS011;69206;51.420;5.400;2023-06-14T01:36:18;8.70;;;5.78;;
79712;SDS011;69206;51.420;5.400;2023-06-14T01:38:45;16.05;;;6.13;;
79712;SDS011;69206;51.420;5.400;2023-06-14T01:41:13;9.35;;;6.15;;
79712;SDS011;69206;51.420;5.400;2023-06-14T01:43:40;8.27;;;6.05;;
79712;SDS011;69206;51.420;5.400;2023-06-14T01:46:07;10.98;;;6.03;;
79712;SDS011;69206;51.420;5.400;2023-06-14T01:48:34;11.38;;;5.53;;
79712;SDS011;69206;51.420;5.400;2023-06-14T01:51:00;12.77;;;5.63;;
79712;SDS011;69206;51.420;5.400;2023-06-14T01:53:25;15.95;;;5.68;;
79712;SDS011;69206;51.420;5.400;2023-06-14T01:55:51;10.45;;;5.78;;
79712;SDS011;69206;51.420;5.400;2023-06-14T01:58:19;8.80;;;5.93;;
79712;SDS011;69206;51.420;5.400;2023-06-14T02:00:44;10.52;;;5.75;;
79712;SDS011;69206;51.420;5.400;2023-06-14T02:03:10;9.10;;;5.50;;
79712;SDS011;69206;51.420;5.400;2023-06-14T02:05:36;13.75;;;5.72;;
79712;SDS011;69206;51.420;5.400;2023-06-14T02:08:04;9.27;;;5.40;;
79712;SDS011;69206;51.420;5.400;2023-06-14T02:10:29;12.70;;;5.90;;
79712;SDS011;69206;51.420;5.400;2023-06-14T02:12:54;16.48;;;5.57;;
79712;SDS011;69206;51.420;5.400;2023-06-14T02:15:20;9.07;;;5.50;;
79712;SDS011;69206;51.420;5.400;2023-06-14T02:17:46;8.48;;;5.68;;
79712;SDS011;69206;51.420;5.400;2023-06-14T02:20:12;12.52;;;5.50;;
79712;SDS011;69206;51.420;5.400;2023-06-14T02:22:38;12.80;;;5.65;;
79712;SDS011;69206;51.420;5.400;2023-06-14T02:25:04;7.53;;;5.55;;
79712;SDS011;69206;51.420;5.400;2023-06-14T02:27:30;11.30;;;5.57;;
79712;SDS011;69206;51.420;5.400;2023-06-14T02:29:55;11.65;;;5.25;;
79712;SDS011;69206;51.420;5.400;2023-06-14T02:32:21;10.07;;;4.68;;
79712;SDS011;69206;51.420;5.400;2023-06-14T02:34:46;9.20;;;5.43;;
79712;SDS011;69206;51.420;5.400;2023-06-14T02:37:17;8.90;;;5.70;;
79712;SDS011;69206;51.420;5.400;2023-06-14T02:39:43;8.63;;;5.55;;
79712;SDS011;69206;51.420;5.400;2023-06-14T02:42:08;7.95;;;5.15;;
79712;SDS011;69206;51.420;5.400;2023-06-14T02:44:34;10.50;;;5.57;;
79712;SDS011;69206;51.420;5.400;2023-06-14T02:47:00;10.27;;;5.53;;
79712;SDS011;69206;51.420;5.400;2023-06-14T02:49:25;9.57;;;5.47;;
79712;SDS011;69206;51.420;5.400;2023-06-14T02:51:51;7.90;;;5.32;;
79712;SDS011;69206;51.420;5.400;2023-06-14T02:54:16;14.88;;;5.63;;
79712;SDS011;69206;51.420;5.400;2023-06-14T02:56:41;10.43;;;5.40;;
79712;SDS011;69206;51.420;5.400;2023-06-14T02:59:07;10.43;;;4.97;;
79712;SDS011;69206;51.420;5.400;2023-06-14T03:01:34;11.90;;;5.63;;
79712;SDS011;69206;51.420;5.400;2023-06-14T03:04:03;11.43;;;5.13;;
79712;SDS011;69206;51.420;5.400;2023-06-14T03:06:29;11.77;;;5.43;;
79712;SDS011;69206;51.420;5.400;2023-06-14T03:08:56;7.65;;;5.07;;
79712;SDS011;69206;51.420;5.400;2023-06-14T03:11:25;11.52;;;5.53;;
79712;SDS011;69206;51.420;5.400;2023-06-14T03:13:53;11.18;;;5.80;;
79712;SDS011;69206;51.420;5.400;2023-06-14T03:16:19;10.40;;;5.22;;
79712;SDS011;69206;51.420;5.400;2023-06-14T03:18:48;13.48;;;5.15;;
79712;SDS011;69206;51.420;5.400;2023-06-14T03:21:14;12.52;;;5.85;;
79712;SDS011;69206;51.420;5.400;2023-06-14T03:23:40;11.32;;;4.93;;
79712;SDS011;69206;51.420;5.400;2023-06-14T03:26:06;9.93;;;5.10;;
79712;SDS011;69206;51.420;5.400;2023-06-14T03:28:31;6.47;;;5.07;;
79712;SDS011;69206;51.420;5.400;2023-06-14T03:30:57;10.63;;;4.75;;
79712;SDS011;69206;51.420;5.400;2023-06-14T03:33:22;11.20;;;5.30;;
79712;SDS011;69206;51.420;5.400;2023-06-14T03:35:47;9.30;;;4.78;;
79712;SDS011;69206;51.420;5.400;2023-06-14T03:38:13;11.52;;;5.13;;
79712;SDS011;69206;51.420;5.400;2023-06-14T03:40:38;15.30;;;5.63;;
79712;SDS011;69206;51.420;5.400;2023-06-14T03:43:03;9.02;;;4.88;;
79712;SDS011;69206;51.420;5.400;2023-06-14T03:45:29;9.82;;;5.13;;
79712;SDS011;69206;51.420;5.400;2023-06-14T03:47:54;9.80;;;4.85;;
79712;SDS011;69206;51.420;5.400;2023-06-14T03:50:20;6.57;;;4.72;;
79712;SDS011;69206;51.420;5.400;2023-06-14T03:52:46;7.18;;;4.60;;
79712;SDS011;69206;51.420;5.400;2023-06-14T03:55:13;12.20;;;4.78;;
79712;SDS011;69206;51.420;5.400;2023-06-14T03:57:41;9.95;;;5.03;;
79712;SDS011;69206;51.420;5.400;2023-06-14T04:00:07;8.82;;;4.60;;
79712;SDS011;69206;51.420;5.400;2023-06-14T04:02:34;10.98;;;5.72;;
79712;SDS011;69206;51.420;5.400;2023-06-14T04:04:59;7.43;;;5.00;;
79712;SDS011;69206;51.420;5.400;2023-06-14T04:07:25;14.32;;;5.40;;
79712;SDS011;69206;51.420;5.400;2023-06-14T04:09:53;12.52;;;5.05;;
79712;SDS011;69206;51.420;5.400;2023-06-14T04:12:18;7.65;;;5.07;;
79712;SDS011;69206;51.420;5.400;2023-06-14T04:14:44;11.00;;;5.18;;
79712;SDS011;69206;51.420;5.400;2023-06-14T04:17:09;10.93;;;5.15;;
79712;SDS011;69206;51.420;5.400;2023-06-14T04:19:35;10.13;;;5.30;;
79712;SDS011;69206;51.420;5.400;2023-06-14T04:22:00;8.77;;;4.63;;
79712;SDS011;69206;51.420;5.400;2023-06-14T04:24:27;11.88;;;5.40;;
79712;SDS011;69206;51.420;5.400;2023-06-14T04:26:57;17.50;;;5.38;;
79712;SDS011;69206;51.420;5.400;2023-06-14T04:29:23;10.38;;;5.07;;
79712;SDS011;69206;51.420;5.400;2023-06-14T04:31:49;10.63;;;4.97;;
79712;SDS011;69206;51.420;5.400;2023-06-14T04:34:16;10.10;;;4.75;;
79712;SDS011;69206;51.420;5.400;2023-06-14T04:36:42;15.57;;;4.70;;
79712;SDS011;69206;51.420;5.400;2023-06-14T04:39:21;8.48;;;4.38;;
79712;SDS011;69206;51.420;5.400;2023-06-14T04:41:47;13.00;;;4.40;;
79712;SDS011;69206;51.420;5.400;2023-06-14T04:44:16;9.65;;;4.72;;
79712;SDS011;69206;51.420;5.400;2023-06-14T04:46:43;10.07;;;4.80;;
79712;SDS011;69206;51.420;5.400;2023-06-14T04:49:12;7.53;;;4.63;;
79712;SDS011;69206;51.420;5.400;2023-06-14T04:51:40;9.90;;;5.38;;
79712;SDS011;69206;51.420;5.400;2023-06-14T04:54:07;11.98;;;4.95;;
79712;SDS011;69206;51.420;5.400;2023-06-14T04:56:35;5.40;;;3.85;;
79712;SDS011;69206;51.420;5.400;2023-06-14T04:59:02;6.50;;;4.95;;
79712;SDS011;69206;51.420;5.400;2023-06-14T05:01:29;11.45;;;4.80;;
79712;SDS011;69206;51.420;5.400;2023-06-14T05:03:56;11.35;;;5.07;;
79712;SDS011;69206;51.420;5.400;2023-06-14T05:06:21;9.50;;;4.75;;
79712;SDS011;69206;51.420;5.400;2023-06-14T05:08:47;14.35;;;4.80;;
79712;SDS011;69206;51.420;5.400;2023-06-14T05:11:12;12.25;;;5.00;;
79712;SDS011;69206;51.420;5.400;2023-06-14T05:13:38;9.07;;;4.93;;
79712;SDS011;69206;51.420;5.400;2023-06-14T05:16:04;8.57;;;4.85;;
79712;SDS011;69206;51.420;5.400;2023-06-14T05:18:31;12.75;;;4.68;;
79712;SDS011;69206;51.420;5.400;2023-06-14T05:21:00;12.63;;;5.25;;
79712;SDS011;69206;51.420;5.400;2023-06-14T05:23:25;7.00;;;5.05;;
79712;SDS011;69206;51.420;5.400;2023-06-14T05:25:50;11.98;;;5.03;;
79712;SDS011;69206;51.420;5.400;2023-06-14T05:28:16;9.77;;;4.85;;
79712;SDS011;69206;51.420;5.400;2023-06-14T05:30:41;11.93;;;4.95;;
79712;SDS011;69206;51.420;5.400;2023-06-14T05:33:07;13.32;;;5.00;;
79712;SDS011;69206;51.420;5.400;2023-06-14T05:35:33;10.07;;;5.25;;
79712;SDS011;69206;51.420;5.400;2023-06-14T05:37:58;16.90;;;5.43;;
79712;SDS011;69206;51.420;5.400;2023-06-14T05:40:23;10.93;;;5.45;;
79712;SDS011;69206;51.420;5.400;2023-06-14T05:42:49;15.50;;;5.47;;
79712;SDS011;69206;51.420;5.400;2023-06-14T05:45:14;15.93;;;5.40;;
79712;SDS011;69206;51.420;5.400;2023-06-14T05:47:42;9.02;;;5.35;;
79712;SDS011;69206;51.420;5.400;2023-06-14T05:50:08;13.80;;;4.70;;
79712;SDS011;69206;51.420;5.400;2023-06-14T05:52:34;10.90;;;5.28;;
79712;SDS011;69206;51.420;5.400;2023-06-14T05:55:00;13.68;;;5.40;;
79712;SDS011;69206;51.420;5.400;2023-06-14T05:57:26;11.70;;;5.88;;
79712;SDS011;69206;51.420;5.400;2023-06-14T05:59:51;11.52;;;4.78;;
79712;SDS011;69206;51.420;5.400;2023-06-14T06:02:17;7.28;;;4.75;;
79712;SDS011;69206;51.420;5.400;2023-06-14T06:04:42;14.50;;;5.55;;
79712;SDS011;69206;51.420;5.400;2023-06-14T06:07:08;13.60;;;5.28;;
79712;SDS011;69206;51.420;5.400;2023-06-14T06:09:33;12.00;;;5.25;;
79712;SDS011;69206;51.420;5.400;2023-06-14T06:11:58;12.32;;;5.32;;
79712;SDS011;69206;51.420;5.400;2023-06-14T06:14:24;12.93;;;5.43;;
79712;SDS011;69206;51.420;5.400;2023-06-14T06:16:50;18.77;;;5.93;;
79712;SDS011;69206;51.420;5.400;2023-06-14T06:19:17;15.60;;;5.40;;
79712;SDS011;69206;51.420;5.400;2023-06-14T06:21:43;9.43;;;5.25;;
79712;SDS011;69206;51.420;5.400;2023-06-14T06:24:08;10.00;;;4.97;;
79712;SDS011;69206;51.420;5.400;2023-06-14T06:26:34;9.75;;;4.95;;
79712;SDS011;69206;51.420;5.400;2023-06-14T06:28:59;15.75;;;5.65;;
79712;SDS011;69206;51.420;5.400;2023-06-14T06:31:25;12.68;;;5.13;;
79712;SDS011;69206;51.420;5.400;2023-06-14T06:33:52;15.50;;;5.07;;
79712;SDS011;69206;51.420;5.400;2023-06-14T06:36:19;10.10;;;5.00;;
79712;SDS011;69206;51.420;5.400;2023-06-14T06:38:45;11.15;;;4.60;;
79712;SDS011;69206;51.420;5.400;2023-06-14T06:41:11;12.10;;;4.68;;
79712;SDS011;69206;51.420;5.400;2023-06-14T06:43:36;14.50;;;5.07;;
79712;SDS011;69206;51.420;5.400;2023-06-14T06:46:01;8.35;;;5.13;;
79712;SDS011;69206;51.420;5.400;2023-06-14T06:48:27;13.68;;;5.40;;
79712;SDS011;69206;51.420;5.400;2023-06-14T06:50:53;10.75;;;5.18;;
79712;SDS011;69206;51.420;5.400;2023-06-14T06:53:18;13.38;;;5.25;;
79712;SDS011;69206;51.420;5.400;2023-06-14T06:55:44;19.52;;;5.80;;
79712;SDS011;69206;51.420;5.400;2023-06-14T06:58:09;18.38;;;5.70;;
79712;SDS011;69206;51.420;5.400;2023-06-14T07:00:35;8.23;;;4.95;;
79712;SDS011;69206;51.420;5.400;2023-06-14T07:03:01;14.93;;;4.63;;
79712;SDS011;69206;51.420;5.400;2023-06-14T07:05:28;11.25;;;5.07;;
79712;SDS011;69206;51.420;5.400;2023-06-14T07:07:54;12.13;;;5.10;;
79712;SDS011;69206;51.420;5.400;2023-06-14T07:10:19;9.43;;;5.07;;
79712;SDS011;69206;51.420;5.400;2023-06-14T07:12:45;17.42;;;5.35;;
79712;SDS011;69206;51.420;5.400;2023-06-14T07:15:11;12.00;;;5.00;;
79712;SDS011;69206;51.420;5.400;2023-06-14T07:17:36;8.90;;;4.97;;
79712;SDS011;69206;51.420;5.400;2023-06-14T07:20:03;20.27;;;4.70;;
79712;SDS011;69206;51.420;5.400;2023-06-14T07:22:42;12.75;;;4.28;;
79712;SDS011;69206;51.420;5.400;2023-06-14T07:25:11;9.82;;;3.95;;
79712;SDS011;69206;51.420;5.400;2023-06-14T07:27:39;9.00;;;4.10;;
79712;SDS011;69206;51.420;5.400;2023-06-14T07:30:06;11.73;;;3.72;;
79712;SDS011;69206;51.420;5.400;2023-06-14T07:32:32;7.60;;;4.03;;
79712;SDS011;69206;51.420;5.400;2023-06-14T07:34:57;9.15;;;3.95;;
79712;SDS011;69206;51.420;5.400;2023-06-14T07:37:22;10.07;;;3.85;;
79712;SDS011;69206;51.420;5.400;2023-06-14T07:39:48;10.07;;;3.78;;
79712;SDS011;69206;51.420;5.400;2023-06-14T07:42:13;19.75;;;3.85;;
79712;SDS011;69206;51.420;5.400;2023-06-14T07:44:39;12.32;;;3.85;;
79712;SDS011;69206;51.420;5.400;2023-06-14T07:47:04;6.53;;;4.20;;
79712;SDS011;69206;51.420;5.400;2023-06-14T07:49:30;12.20;;;4.07;;
79712;SDS011;69206;51.420;5.400;2023-06-14T07:51:55;15.82;;;4.43;;
79712;SDS011;69206;51.420;5.400;2023-06-14T07:54:21;13.43;;;4.25;;
79712;SDS011;69206;51.420;5.400;2023-06-14T07:56:50;6.88;;;4.20;;
79712;SDS011;69206;51.420;5.400;2023-06-14T07:59:16;8.60;;;3.70;;
79712;SDS011;69206;51.420;5.400;2023-06-14T08:01:41;11.88;;;4.13;;
79712;SDS011;69206;51.420;5.400;2023-06-14T08:04:11;22.77;;;4.45;;
79712;SDS011;69206;51.420;5.400;2023-06-14T08:06:37;10.55;;;4.20;;
79712;SDS011;69206;51.420;5.400;2023-06-14T08:09:03;9.20;;;4.03;;
79712;SDS011;69206;51.420;5.400;2023-06-14T08:11:29;6.63;;;3.80;;
79712;SDS011;69206;51.420;5.400;2023-06-14T08:13:55;8.57;;;4.15;;
79712;SDS011;69206;51.420;5.400;2023-06-14T08:16:20;9.05;;;4.25;;
79712;SDS011;69206;51.420;5.400;2023-06-14T08:18:45;11.60;;;4.63;;
79712;SDS011;69206;51.420;5.400;2023-06-14T08:21:11;9.05;;;3.67;;
79712;SDS011;69206;51.420;5.400;2023-06-14T08:23:36;12.55;;;3.85;;
79712;SDS011;69206;51.420;5.400;2023-06-14T08:26:02;15.40;;;3.55;;
79712;SDS011;69206;51.420;5.400;2023-06-14T08:28:29;9.02;;;3.53;;
79712;SDS011;69206;51.420;5.400;2023-06-14T08:30:54;15.98;;;3.60;;
79712;SDS011;69206;51.420;5.400;2023-06-14T08:33:20;11.35;;;3.65;;
79712;SDS011;69206;51.420;5.400;2023-06-14T08:35:45;8.77;;;3.30;;
79712;SDS011;69206;51.420;5.400;2023-06-14T08:38:11;4.40;;;3.42;;
79712;SDS011;69206;51.420;5.400;2023-06-14T08:40:37;9.13;;;3.70;;
79712;SDS011;69206;51.420;5.400;2023-06-14T08:43:03;7.20;;;3.40;;
79712;SDS011;69206;51.420;5.400;2023-06-14T08:45:29;11.10;;;3.92;;
79712;SDS011;69206;51.420;5.400;2023-06-14T08:47:54;7.35;;;3.40;;
79712;SDS011;69206;51.420;5.400;2023-06-14T08:50:24;8.95;;;3.67;;
79712;SDS011;69206;51.420;5.400;2023-06-14T08:52:57;7.70;;;3.20;;
79712;SDS011;69206;51.420;5.400;2023-06-14T08:55:27;12.00;;;3.50;;
79712;SDS011;69206;51.420;5.400;2023-06-14T08:57:54;9.65;;;3.40;;
79712;SDS011;69206;51.420;5.400;2023-06-14T09:00:22;16.83;;;4.13;;
79712;SDS011;69206;51.420;5.400;2023-06-14T09:02:49;9.50;;;3.15;;
79712;SDS011;69206;51.420;5.400;2023-06-14T09:05:15;5.35;;;2.85;;
79712;SDS011;69206;51.420;5.400;2023-06-14T09:07:43;3.95;;;2.83;;
79712;SDS011;69206;51.420;5.400;2023-06-14T09:10:09;9.60;;;3.00;;
79712;SDS011;69206;51.420;5.400;2023-06-14T09:12:38;9.02;;;2.80;;
79712;SDS011;69206;51.420;5.400;2023-06-14T09:15:07;9.13;;;2.72;;
79712;SDS011;69206;51.420;5.400;2023-06-14T09:17:37;9.35;;;2.80;;
79712;SDS011;69206;51.420;5.400;2023-06-14T09:20:03;3.95;;;2.25;;
79712;SDS011;69206;51.420;5.400;2023-06-14T09:22:42;8.52;;;2.90;;
79712;SDS011;69206;51.420;5.400;2023-06-14T09:25:08;7.32;;;2.70;;
79712;SDS011;69206;51.420;5.400;2023-06-14T09:27:33;7.00;;;2.85;;
79712;SDS011;69206;51.420;5.400;2023-06-14T09:30:00;11.50;;;2.40;;
79712;SDS011;69206;51.420;5.400;2023-06-14T09:32:27;10.18;;;2.45;;
79712;SDS011;69206;51.420;5.400;2023-06-14T09:34:53;11.20;;;2.65;;
79712;SDS011;69206;51.420;5.400;2023-06-14T09:37:28;6.55;;;2.55;;
79712;SDS011;69206;51.420;5.400;2023-06-14T09:39:54;9.38;;;2.10;;
79712;SDS011;69206;51.420;5.400;2023-06-14T09:42:19;5.35;;;1.98;;
79712;SDS011;69206;51.420;5.400;2023-06-14T09:44:48;5.70;;;1.70;;
79712;SDS011;69206;51.420;5.400;2023-06-14T09:47:14;6.30;;;1.75;;
79712;SDS011;69206;51.420;5.400;2023-06-14T09:49:41;4.00;;;1.60;;
79712;SDS011;69206;51.420;5.400;2023-06-14T09:52:08;3.10;;;1.80;;
79712;SDS011;69206;51.420;5.400;2023-06-14T09:54:38;3.72;;;1.85;;
79712;SDS011;69206;51.420;5.400;2023-06-14T09:57:07;4.40;;;1.55;;
79712;SDS011;69206;51.420;5.400;2023-06-14T09:59:36;7.10;;;1.63;;
79712;SDS011;69206;51.420;5.400;2023-06-14T10:02:09;4.20;;;1.42;;
79712;SDS011;69206;51.420;5.400;2023-06-14T10:04:44;2.83;;;1.50;;
79712;SDS011;69206;51.420;5.400;2023-06-14T10:07:13;1.98;;;1.50;;
79712;SDS011;69206;51.420;5.400;2023-06-14T10:09:43;3.95;;;1.67;;
79712;SDS011;69206;51.420;5.400;2023-06-14T10:12:13;5.28;;;1.58;;
79712;SDS011;69206;51.420;5.400;2023-06-14T10:14:45;3.45;;;1.40;;
79712;SDS011;69206;51.420;5.400;2023-06-14T10:17:16;2.50;;;1.17;;
79712;SDS011;69206;51.420;5.400;2023-06-14T10:19:51;11.75;;;1.77;;
79712;SDS011;69206;51.420;5.400;2023-06-14T10:22:29;3.88;;;1.55;;
79712;SDS011;69206;51.420;5.400;2023-06-14T10:24:59;1.58;;;1.30;;
79712;SDS011;69206;51.420;5.400;2023-06-14T10:27:25;6.28;;;1.60;;
79712;SDS011;69206;51.420;5.400;2023-06-14T10:32:20;11.13;;;1.55;;
79712;SDS011;69206;51.420;5.400;2023-06-14T10:34:49;2.03;;;1.40;;
79712;SDS011;69206;51.420;5.400;2023-06-14T10:37:18;5.80;;;1.83;;
79712;SDS011;69206;51.420;5.400;2023-06-14T10:39:45;8.02;;;1.60;;
79712;SDS011;69206;51.420;5.400;2023-06-14T10:42:12;1.80;;;1.48;;
79712;SDS011;69206;51.420;5.400;2023-06-14T10:47:06;2.70;;;1.55;;
79712;SDS011;69206;51.420;5.400;2023-06-14T10:52:08;4.57;;;1.80;;
79712;SDS011;69206;51.420;5.400;2023-06-14T10:54:37;7.85;;;2.03;;
79712;SDS011;69206;51.420;5.400;2023-06-14T10:57:03;2.40;;;1.45;;
79712;SDS011;69206;51.420;5.400;2023-06-14T10:59:32;4.15;;;1.80;;
79712;SDS011;69206;51.420;5.400;2023-06-14T11:04:48;2.72;;;1.95;;
79712;SDS011;69206;51.420;5.400;2023-06-14T11:12:36;4.97;;;1.88;;
79712;SDS011;69206;51.420;5.400;2023-06-14T11:15:05;5.53;;;1.60;;
79712;SDS011;69206;51.420;5.400;2023-06-14T11:17:31;2.17;;;1.67;;
79712;SDS011;69206;51.420;5.400;2023-06-14T11:20:10;5.35;;;1.95;;
79712;SDS011;69206;51.420;5.400;2023-06-14T11:22:44;5.72;;;1.65;;
79712;SDS011;69206;51.420;5.400;2023-06-14T11:25:10;10.13;;;1.92;;
79712;SDS011;69206;51.420;5.400;2023-06-14T11:27:36;2.70;;;1.63;;
79712;SDS011;69206;51.420;5.400;2023-06-14T11:30:02;4.47;;;2.10;;
79712;SDS011;69206;51.420;5.400;2023-06-14T11:32:28;6.03;;;1.90;;
79712;SDS011;69206;51.420;5.400;2023-06-14T11:34:53;2.95;;;1.60;;
79712;SDS011;69206;51.420;5.400;2023-06-14T11:37:19;7.15;;;1.70;;
79712;SDS011;69206;51.420;5.400;2023-06-14T11:39:44;3.20;;;1.60;;
79712;SDS011;69206;51.420;5.400;2023-06-14T11:42:13;4.65;;;1.85;;
79712;SDS011;69206;51.420;5.400;2023-06-14T11:44:41;17.40;;;2.47;;
79712;SDS011;69206;51.420;5.400;2023-06-14T11:47:08;6.60;;;2.15;;
79712;SDS011;69206;51.420;5.400;2023-06-14T11:49:36;8.50;;;1.83;;
79712;SDS011;69206;51.420;5.400;2023-06-14T11:52:02;7.72;;;1.83;;
79712;SDS011;69206;51.420;5.400;2023-06-14T11:54:27;5.82;;;1.80;;
79712;SDS011;69206;51.420;5.400;2023-06-14T11:56:53;4.03;;;1.90;;
79712;SDS011;69206;51.420;5.400;2023-06-14T11:59:18;3.88;;;2.10;;
79712;SDS011;69206;51.420;5.400;2023-06-14T12:01:45;8.25;;;2.05;;
79712;SDS011;69206;51.420;5.400;2023-06-14T12:04:12;7.40;;;1.90;;
79712;SDS011;69206;51.420;5.400;2023-06-14T12:06:38;6.53;;;2.10;;
79712;SDS011;69206;51.420;5.400;2023-06-14T12:09:04;2.95;;;1.60;;
79712;SDS011;69206;51.420;5.400;2023-06-14T12:11:38;6.10;;;1.80;;
79712;SDS011;69206;51.420;5.400;2023-06-14T12:14:07;5.28;;;1.90;;
79712;SDS011;69206;51.420;5.400;2023-06-14T12:16:34;2.45;;;1.73;;
79712;SDS011;69206;51.420;5.400;2023-06-14T12:21:38;2.95;;;1.60;;
79712;SDS011;69206;51.420;5.400;2023-06-14T12:24:05;2.10;;;1.52;;
79712;SDS011;69206;51.420;5.400;2023-06-14T12:26:32;11.65;;;2.00;;
79712;SDS011;69206;51.420;5.400;2023-06-14T12:28:57;4.78;;;1.63;;
79712;SDS011;69206;51.420;5.400;2023-06-14T12:31:23;3.92;;;1.67;;
79712;SDS011;69206;51.420;5.400;2023-06-14T12:33:49;4.30;;;2.05;;
79712;SDS011;69206;51.420;5.400;2023-06-14T12:36:14;7.18;;;1.73;;
79712;SDS011;69206;51.420;5.400;2023-06-14T12:38:40;3.50;;;1.50;;
79712;SDS011;69206;51.420;5.400;2023-06-14T12:41:06;3.35;;;1.67;;
79712;SDS011;69206;51.420;5.400;2023-06-14T12:43:32;2.60;;;1.63;;
79712;SDS011;69206;51.420;5.400;2023-06-14T12:45:58;3.53;;;1.80;;
79712;SDS011;69206;51.420;5.400;2023-06-14T12:48:24;3.00;;;1.58;;
79712;SDS011;69206;51.420;5.400;2023-06-14T12:50:49;3.15;;;1.55;;
79712;SDS011;69206;51.420;5.400;2023-06-14T12:53:15;3.58;;;1.77;;
79712;SDS011;69206;51.420;5.400;2023-06-14T12:55:40;2.58;;;1.83;;
79712;SDS011;69206;51.420;5.400;2023-06-14T12:58:06;2.58;;;1.70;;
79712;SDS011;69206;51.420;5.400;2023-06-14T13:00:31;4.50;;;1.67;;
79712;SDS011;69206;51.420;5.400;2023-06-14T13:02:57;4.80;;;1.83;;
79712;SDS011;69206;51.420;5.400;2023-06-14T13:05:23;5.45;;;1.95;;
79712;SDS011;69206;51.420;5.400;2023-06-14T13:07:48;4.90;;;1.80;;
79712;SDS011;69206;51.420;5.400;2023-06-14T13:10:14;4.93;;;1.70;;
79712;SDS011;69206;51.420;5.400;2023-06-14T13:12:39;6.22;;;1.67;;
79712;SDS011;69206;51.420;5.400;2023-06-14T13:15:05;6.78;;;1.67;;
79712;SDS011;69206;51.420;5.400;2023-06-14T13:17:32;4.47;;;1.70;;
79712;SDS011;69206;51.420;5.400;2023-06-14T13:19:58;5.47;;;2.17;;
79712;SDS011;69206;51.420;5.400;2023-06-14T13:22:23;2.55;;;1.75;;
79712;SDS011;69206;51.420;5.400;2023-06-14T13:24:50;7.05;;;1.55;;
79712;SDS011;69206;51.420;5.400;2023-06-14T13:27:15;3.58;;;1.50;;
79712;SDS011;69206;51.420;5.400;2023-06-14T13:29:40;4.13;;;1.77;;
79712;SDS011;69206;51.420;5.400;2023-06-14T13:32:06;6.13;;;1.50;;
79712;SDS011;69206;51.420;5.400;2023-06-14T13:34:32;3.95;;;1.55;;
79712;SDS011;69206;51.420;5.400;2023-06-14T13:36:57;2.35;;;1.70;;
79712;SDS011;69206;51.420;5.400;2023-06-14T13:39:24;4.00;;;1.63;;
79712;SDS011;69206;51.420;5.400;2023-06-14T13:41:50;1.52;;;1.40;;
79712;SDS011;69206;51.420;5.400;2023-06-14T13:44:15;7.30;;;1.80;;
79712;SDS011;69206;51.420;5.400;2023-06-14T13:46:43;5.75;;;2.20;;
79712;SDS011;69206;51.420;5.400;2023-06-14T13:49:09;4.00;;;1.65;;
79712;SDS011;69206;51.420;5.400;2023-06-14T13:51:35;2.15;;;1.70;;
79712;SDS011;69206;51.420;5.400;2023-06-14T13:54:01;4.88;;;1.70;;
79712;SDS011;69206;51.420;5.400;2023-06-14T13:56:26;4.50;;;1.50;;
79712;SDS011;69206;51.420;5.400;2023-06-14T13:58:52;9.18;;;1.73;;
79712;SDS011;69206;51.420;5.400;2023-06-14T14:01:18;5.35;;;1.40;;
79712;SDS011;69206;51.420;5.400;2023-06-14T14:03:47;5.43;;;1.50;;
79712;SDS011;69206;51.420;5.400;2023-06-14T14:06:14;3.00;;;1.75;;
79712;SDS011;69206;51.420;5.400;2023-06-14T14:08:41;4.40;;;1.35;;
79712;SDS011;69206;51.420;5.400;2023-06-14T14:11:07;1.92;;;1.50;;
79712;SDS011;69206;51.420;5.400;2023-06-14T14:13:33;5.72;;;1.52;;
79712;SDS011;69206;51.420;5.400;2023-06-14T14:16:01;1.73;;;1.10;;
79712;SDS011;69206;51.420;5.400;2023-06-14T14:18:27;8.35;;;1.83;;
79712;SDS011;69206;51.420;5.400;2023-06-14T14:20:52;2.63;;;1.50;;
79712;SDS011;69206;51.420;5.400;2023-06-14T14:23:18;4.10;;;1.33;;
79712;SDS011;69206;51.420;5.400;2023-06-14T14:25:45;11.30;;;1.70;;
79712;SDS011;69206;51.420;5.400;2023-06-14T14:28:11;6.93;;;1.40;;
79712;SDS011;69206;51.420;5.400;2023-06-14T14:30:36;5.05;;;1.35;;
79712;SDS011;69206;51.420;5.400;2023-06-14T14:33:04;4.57;;;1.15;;
79712;SDS011;69206;51.420;5.400;2023-06-14T14:35:30;1.45;;;1.00;;
79712;SDS011;69206;51.420;5.400;2023-06-14T14:37:56;3.45;;;1.30;;
79712;SDS011;69206;51.420;5.400;2023-06-14T14:40:21;6.75;;;1.50;;
79712;SDS011;69206;51.420;5.400;2023-06-14T14:42:47;2.47;;;1.50;;
79712;SDS011;69206;51.420;5.400;2023-06-14T14:45:12;6.78;;;1.17;;
79712;SDS011;69206;51.420;5.400;2023-06-14T14:47:38;1.67;;;1.20;;
79712;SDS011;69206;51.420;5.400;2023-06-14T14:50:03;1.55;;;1.20;;
79712;SDS011;69206;51.420;5.400;2023-06-14T14:52:29;3.17;;;1.15;;
79712;SDS011;69206;51.420;5.400;2023-06-14T14:54:54;7.00;;;1.20;;